Warren, PA

5:41 PM EST on February 26, 2017 (GMT -0500)
Warren | | Change Station

Elev 1243 ft 41.85 °N, 79.14 °W | Updated 0 second ago

Clear
Clear
32.9 °F
Feels Like 30 °F
N
3.2
Wind Variable Wind from South

Today
High -- | Low -- °F
--% Chance of Precip.
Yesterday
High -- | Low -- °F
Precip. -- in
Pressure 30.03 in
Visibility 10.0 miles
Clouds Clear
Windchill 30 °F
Dew Point 18 °F
Humidity 55%
Rainfall 0.05 in
Snow Depth Not available.
6:55 AM 6:03 PM
New Moon, 0% visible
METAR KJHW 262235Z AUTO 20007KT 10SM CLR M01/M09 A3003 RMK AO1
Pressure 30.03 in
Visibility 10.0 miles
Clouds Clear
Windchill 30 °F
Dew Point 18 °F
Humidity 55%
Rainfall 0.05 in
Snow Depth Not available.
6:55 AM 6:03 PM
New Moon, 0% visible
METAR KJHW 262235Z AUTO 20007KT 10SM CLR M01/M09 A3003 RMK AO1

Get Your Daily Forecast Email!

Thanks for signing up!

Be on the lookout for a verification email in your inbox.

You'll start receiving the daily forecast at 8 AM.

×

10-Day Weather Forecast

Almanac

Astronomy

Feb. 26, 2017 Rise Set
Actual Time
Civil Twilight
Nautical Twilight
Astronomical Twilight
Moon
Length of Visible Light
Length of Day
Tomorrow will be .
, % of the Moon is Illuminated

Today's Extremes

State Highs State Lows

Community

WunderPhotos

Upload Photos

1,962,540 photos uploaded!

WunderBlog® & News

Nearby

Air Quality

  Air Quality AQ Index Pollutant
Not available.

Snow Depth

Station Depth Elevation

Earthquake Activity

City Distance Mag. Time & Date
Minimum magnitude displayed is 2.5.

Coastal Water Temperatures

Place Temperature

Stations

Nearby Weather Stations

Station Location Temp. Windchill Dew Point Humidity Wind Precip. Elev Updated Type
                   

Watches & Warnings

There are currently no watches in effect.